sensor_id;sensor_type;location;lat;lon;timestamp;P1;durP1;ratioP1;P2;durP2;ratioP2
23596;SDS011;40226;50.874;4.394;2023-11-25T00:00:46;12.55;;;2.13;;
23596;SDS011;40226;50.874;4.394;2023-11-25T00:03:13;13.50;;;2.30;;
23596;SDS011;40226;50.874;4.394;2023-11-25T00:05:40;11.40;;;2.60;;
23596;SDS011;40226;50.874;4.394;2023-11-25T00:08:06;8.60;;;1.80;;
23596;SDS011;40226;50.874;4.394;2023-11-25T00:10:32;11.68;;;2.08;;
23596;SDS011;40226;50.874;4.394;2023-11-25T00:12:58;10.02;;;1.80;;
23596;SDS011;40226;50.874;4.394;2023-11-25T00:15:24;11.27;;;2.33;;
23596;SDS011;40226;50.874;4.394;2023-11-25T00:17:53;11.10;;;2.85;;
23596;SDS011;40226;50.874;4.394;2023-11-25T00:20:20;11.07;;;2.45;;
23596;SDS011;40226;50.874;4.394;2023-11-25T00:25:15;12.80;;;2.22;;
23596;SDS011;40226;50.874;4.394;2023-11-25T00:27:43;11.73;;;2.10;;
23596;SDS011;40226;50.874;4.394;2023-11-25T00:30:11;9.95;;;2.25;;
23596;SDS011;40226;50.874;4.394;2023-11-25T00:32:39;14.55;;;2.63;;
23596;SDS011;40226;50.874;4.394;2023-11-25T00:35:06;15.63;;;2.50;;
23596;SDS011;40226;50.874;4.394;2023-11-25T00:37:35;11.55;;;2.22;;
23596;SDS011;40226;50.874;4.394;2023-11-25T00:40:02;12.02;;;2.10;;
23596;SDS011;40226;50.874;4.394;2023-11-25T00:42:31;8.13;;;1.70;;
23596;SDS011;40226;50.874;4.394;2023-11-25T00:44:56;12.43;;;2.40;;
23596;SDS011;40226;50.874;4.394;2023-11-25T00:47:22;11.30;;;2.05;;
23596;SDS011;40226;50.874;4.394;2023-11-25T00:49:49;16.10;;;2.45;;
23596;SDS011;40226;50.874;4.394;2023-11-25T00:52:15;12.73;;;2.03;;
23596;SDS011;40226;50.874;4.394;2023-11-25T00:54:42;8.82;;;1.58;;
23596;SDS011;40226;50.874;4.394;2023-11-25T00:57:08;10.88;;;2.38;;
23596;SDS011;40226;50.874;4.394;2023-11-25T00:59:33;14.00;;;2.55;;
23596;SDS011;40226;50.874;4.394;2023-11-25T01:01:59;11.30;;;2.67;;
23596;SDS011;40226;50.874;4.394;2023-11-25T01:04:24;14.13;;;2.75;;
23596;SDS011;40226;50.874;4.394;2023-11-25T01:06:50;13.38;;;2.83;;
23596;SDS011;40226;50.874;4.394;2023-11-25T01:09:16;10.73;;;3.05;;
23596;SDS011;40226;50.874;4.394;2023-11-25T01:11:43;19.60;;;2.92;;
23596;SDS011;40226;50.874;4.394;2023-11-25T01:14:08;15.45;;;2.88;;
23596;SDS011;40226;50.874;4.394;2023-11-25T01:16:34;11.48;;;2.35;;
23596;SDS011;40226;50.874;4.394;2023-11-25T01:19:01;11.80;;;2.92;;
23596;SDS011;40226;50.874;4.394;2023-11-25T01:21:27;12.45;;;2.55;;
23596;SDS011;40226;50.874;4.394;2023-11-25T01:23:52;11.40;;;2.90;;
23596;SDS011;40226;50.874;4.394;2023-11-25T01:26:18;17.02;;;3.05;;
23596;SDS011;40226;50.874;4.394;2023-11-25T01:28:44;11.70;;;2.70;;
23596;SDS011;40226;50.874;4.394;2023-11-25T01:31:10;18.38;;;3.17;;
23596;SDS011;40226;50.874;4.394;2023-11-25T01:33:36;12.43;;;3.13;;
23596;SDS011;40226;50.874;4.394;2023-11-25T01:36:02;13.70;;;2.30;;
23596;SDS011;40226;50.874;4.394;2023-11-25T01:38:29;14.52;;;2.70;;
23596;SDS011;40226;50.874;4.394;2023-11-25T01:40:55;15.82;;;2.30;;
23596;SDS011;40226;50.874;4.394;2023-11-25T01:43:24;12.63;;;2.30;;
23596;SDS011;40226;50.874;4.394;2023-11-25T01:45:51;15.20;;;2.17;;
23596;SDS011;40226;50.874;4.394;2023-11-25T01:48:24;12.25;;;2.63;;
23596;SDS011;40226;50.874;4.394;2023-11-25T01:50:51;15.27;;;2.05;;
23596;SDS011;40226;50.874;4.394;2023-11-25T01:53:19;14.52;;;2.28;;
23596;SDS011;40226;50.874;4.394;2023-11-25T01:55:45;10.82;;;2.42;;
23596;SDS011;40226;50.874;4.394;2023-11-25T01:58:14;13.05;;;2.33;;
23596;SDS011;40226;50.874;4.394;2023-11-25T02:00:44;13.02;;;2.13;;
23596;SDS011;40226;50.874;4.394;2023-11-25T02:03:13;18.98;;;2.47;;
23596;SDS011;40226;50.874;4.394;2023-11-25T02:05:39;10.82;;;2.10;;
23596;SDS011;40226;50.874;4.394;2023-11-25T02:08:08;15.75;;;2.33;;
23596;SDS011;40226;50.874;4.394;2023-11-25T02:10:34;10.20;;;1.95;;
23596;SDS011;40226;50.874;4.394;2023-11-25T02:13:00;13.80;;;2.35;;
23596;SDS011;40226;50.874;4.394;2023-11-25T02:15:33;24.05;;;2.70;;
23596;SDS011;40226;50.874;4.394;2023-11-25T02:17:59;16.85;;;2.90;;
23596;SDS011;40226;50.874;4.394;2023-11-25T02:20:32;14.00;;;2.05;;
23596;SDS011;40226;50.874;4.394;2023-11-25T02:23:03;14.32;;;2.22;;
23596;SDS011;40226;50.874;4.394;2023-11-25T02:25:29;18.80;;;2.40;;
23596;SDS011;40226;50.874;4.394;2023-11-25T02:27:55;17.52;;;2.28;;
23596;SDS011;40226;50.874;4.394;2023-11-25T02:30:23;10.60;;;2.28;;
23596;SDS011;40226;50.874;4.394;2023-11-25T02:32:50;13.75;;;3.05;;
23596;SDS011;40226;50.874;4.394;2023-11-25T02:35:16;13.27;;;2.72;;
23596;SDS011;40226;50.874;4.394;2023-11-25T02:37:43;17.35;;;2.83;;
23596;SDS011;40226;50.874;4.394;2023-11-25T02:40:10;16.30;;;2.20;;
23596;SDS011;40226;50.874;4.394;2023-11-25T02:42:39;12.80;;;2.00;;
23596;SDS011;40226;50.874;4.394;2023-11-25T02:45:04;12.05;;;2.13;;
23596;SDS011;40226;50.874;4.394;2023-11-25T02:47:31;18.65;;;2.50;;
23596;SDS011;40226;50.874;4.394;2023-11-25T02:49:57;15.90;;;2.83;;
23596;SDS011;40226;50.874;4.394;2023-11-25T02:52:23;19.25;;;2.85;;
23596;SDS011;40226;50.874;4.394;2023-11-25T02:54:49;19.65;;;2.50;;
23596;SDS011;40226;50.874;4.394;2023-11-25T02:57:15;19.02;;;2.75;;
23596;SDS011;40226;50.874;4.394;2023-11-25T02:59:44;18.70;;;2.75;;
23596;SDS011;40226;50.874;4.394;2023-11-25T03:02:10;20.42;;;2.70;;
23596;SDS011;40226;50.874;4.394;2023-11-25T03:04:38;11.35;;;2.70;;
23596;SDS011;40226;50.874;4.394;2023-11-25T03:07:10;14.10;;;2.13;;
23596;SDS011;40226;50.874;4.394;2023-11-25T03:09:38;21.33;;;3.00;;
23596;SDS011;40226;50.874;4.394;2023-11-25T03:12:04;14.10;;;2.60;;
23596;SDS011;40226;50.874;4.394;2023-11-25T03:14:30;18.42;;;2.90;;
23596;SDS011;40226;50.874;4.394;2023-11-25T03:16:56;13.95;;;2.58;;
23596;SDS011;40226;50.874;4.394;2023-11-25T03:19:22;18.77;;;2.88;;
23596;SDS011;40226;50.874;4.394;2023-11-25T03:21:52;16.10;;;3.05;;
23596;SDS011;40226;50.874;4.394;2023-11-25T03:24:17;14.13;;;2.25;;
23596;SDS011;40226;50.874;4.394;2023-11-25T03:26:46;19.02;;;2.58;;
23596;SDS011;40226;50.874;4.394;2023-11-25T03:29:12;19.42;;;2.58;;
23596;SDS011;40226;50.874;4.394;2023-11-25T03:31:41;25.23;;;3.05;;
23596;SDS011;40226;50.874;4.394;2023-11-25T03:34:07;18.48;;;3.13;;
23596;SDS011;40226;50.874;4.394;2023-11-25T03:36:34;20.13;;;3.17;;
23596;SDS011;40226;50.874;4.394;2023-11-25T03:39:00;12.73;;;2.55;;
23596;SDS011;40226;50.874;4.394;2023-11-25T03:41:25;21.58;;;3.22;;
23596;SDS011;40226;50.874;4.394;2023-11-25T03:43:53;21.17;;;3.00;;
23596;SDS011;40226;50.874;4.394;2023-11-25T03:46:19;19.40;;;3.22;;
23596;SDS011;40226;50.874;4.394;2023-11-25T03:48:44;24.08;;;3.72;;
23596;SDS011;40226;50.874;4.394;2023-11-25T03:51:10;18.52;;;2.72;;
23596;SDS011;40226;50.874;4.394;2023-11-25T03:53:37;22.23;;;2.83;;
23596;SDS011;40226;50.874;4.394;2023-11-25T03:56:02;18.23;;;3.13;;
23596;SDS011;40226;50.874;4.394;2023-11-25T03:58:28;23.40;;;3.13;;
23596;SDS011;40226;50.874;4.394;2023-11-25T04:00:54;23.02;;;2.40;;
23596;SDS011;40226;50.874;4.394;2023-11-25T04:03:20;17.73;;;3.28;;
23596;SDS011;40226;50.874;4.394;2023-11-25T04:05:46;18.13;;;3.15;;
23596;SDS011;40226;50.874;4.394;2023-11-25T04:08:11;18.88;;;3.33;;
23596;SDS011;40226;50.874;4.394;2023-11-25T04:10:37;17.02;;;3.33;;
23596;SDS011;40226;50.874;4.394;2023-11-25T04:13:04;18.20;;;2.92;;
23596;SDS011;40226;50.874;4.394;2023-11-25T04:15:29;16.90;;;2.70;;
23596;SDS011;40226;50.874;4.394;2023-11-25T04:17:55;15.43;;;2.55;;
23596;SDS011;40226;50.874;4.394;2023-11-25T04:20:21;16.27;;;2.97;;
23596;SDS011;40226;50.874;4.394;2023-11-25T04:22:49;18.42;;;3.28;;
23596;SDS011;40226;50.874;4.394;2023-11-25T04:25:15;24.58;;;3.13;;
23596;SDS011;40226;50.874;4.394;2023-11-25T04:27:41;18.85;;;3.13;;
23596;SDS011;40226;50.874;4.394;2023-11-25T04:30:08;22.10;;;3.67;;
23596;SDS011;40226;50.874;4.394;2023-11-25T04:32:38;13.95;;;2.92;;
23596;SDS011;40226;50.874;4.394;2023-11-25T04:35:07;19.13;;;3.20;;
23596;SDS011;40226;50.874;4.394;2023-11-25T04:37:33;18.63;;;3.53;;
23596;SDS011;40226;50.874;4.394;2023-11-25T04:39:59;16.50;;;3.42;;
23596;SDS011;40226;50.874;4.394;2023-11-25T04:42:26;22.70;;;3.47;;
23596;SDS011;40226;50.874;4.394;2023-11-25T04:44:52;16.75;;;2.70;;
23596;SDS011;40226;50.874;4.394;2023-11-25T04:47:17;24.08;;;3.42;;
23596;SDS011;40226;50.874;4.394;2023-11-25T04:49:43;25.23;;;3.05;;
23596;SDS011;40226;50.874;4.394;2023-11-25T04:52:09;20.58;;;3.40;;
23596;SDS011;40226;50.874;4.394;2023-11-25T04:54:34;21.75;;;2.90;;
23596;SDS011;40226;50.874;4.394;2023-11-25T04:57:00;19.65;;;3.85;;
23596;SDS011;40226;50.874;4.394;2023-11-25T04:59:27;15.55;;;2.92;;
23596;SDS011;40226;50.874;4.394;2023-11-25T05:01:54;15.57;;;3.17;;
23596;SDS011;40226;50.874;4.394;2023-11-25T05:04:19;27.17;;;3.35;;
23596;SDS011;40226;50.874;4.394;2023-11-25T05:06:47;25.05;;;3.55;;
23596;SDS011;40226;50.874;4.394;2023-11-25T05:09:14;25.98;;;4.45;;
23596;SDS011;40226;50.874;4.394;2023-11-25T05:11:43;20.52;;;3.70;;
23596;SDS011;40226;50.874;4.394;2023-11-25T05:14:08;16.80;;;2.85;;
23596;SDS011;40226;50.874;4.394;2023-11-25T05:16:36;19.83;;;2.90;;
23596;SDS011;40226;50.874;4.394;2023-11-25T05:19:02;14.88;;;2.80;;
23596;SDS011;40226;50.874;4.394;2023-11-25T05:21:36;21.10;;;2.42;;
23596;SDS011;40226;50.874;4.394;2023-11-25T05:24:02;17.95;;;3.22;;
23596;SDS011;40226;50.874;4.394;2023-11-25T05:26:29;18.23;;;2.90;;
23596;SDS011;40226;50.874;4.394;2023-11-25T05:28:55;18.25;;;3.22;;
23596;SDS011;40226;50.874;4.394;2023-11-25T05:31:21;23.42;;;2.83;;
23596;SDS011;40226;50.874;4.394;2023-11-25T05:33:48;24.95;;;3.22;;
23596;SDS011;40226;50.874;4.394;2023-11-25T05:36:14;17.48;;;2.65;;
23596;SDS011;40226;50.874;4.394;2023-11-25T05:38:39;20.17;;;2.83;;
23596;SDS011;40226;50.874;4.394;2023-11-25T05:41:05;20.98;;;3.30;;
23596;SDS011;40226;50.874;4.394;2023-11-25T05:43:33;23.35;;;2.85;;
23596;SDS011;40226;50.874;4.394;2023-11-25T05:45:59;15.00;;;2.72;;
23596;SDS011;40226;50.874;4.394;2023-11-25T05:48:25;17.95;;;2.55;;
23596;SDS011;40226;50.874;4.394;2023-11-25T05:50:52;13.68;;;2.63;;
23596;SDS011;40226;50.874;4.394;2023-11-25T05:53:17;25.73;;;3.83;;
23596;SDS011;40226;50.874;4.394;2023-11-25T05:55:44;24.70;;;3.00;;
23596;SDS011;40226;50.874;4.394;2023-11-25T05:58:10;24.92;;;2.97;;
23596;SDS011;40226;50.874;4.394;2023-11-25T06:00:35;22.48;;;3.45;;
23596;SDS011;40226;50.874;4.394;2023-11-25T06:03:01;17.17;;;2.53;;
23596;SDS011;40226;50.874;4.394;2023-11-25T06:05:26;22.58;;;2.97;;
23596;SDS011;40226;50.874;4.394;2023-11-25T06:07:55;21.58;;;2.70;;
23596;SDS011;40226;50.874;4.394;2023-11-25T06:10:20;16.95;;;3.00;;
23596;SDS011;40226;50.874;4.394;2023-11-25T06:12:48;18.80;;;3.47;;
23596;SDS011;40226;50.874;4.394;2023-11-25T06:15:13;22.02;;;3.15;;
23596;SDS011;40226;50.874;4.394;2023-11-25T06:17:40;21.88;;;2.88;;
23596;SDS011;40226;50.874;4.394;2023-11-25T06:20:08;13.93;;;3.00;;
23596;SDS011;40226;50.874;4.394;2023-11-25T06:22:34;21.13;;;3.58;;
23596;SDS011;40226;50.874;4.394;2023-11-25T06:27:30;20.33;;;3.38;;
23596;SDS011;40226;50.874;4.394;2023-11-25T06:29:56;22.30;;;3.42;;
23596;SDS011;40226;50.874;4.394;2023-11-25T06:32:23;22.33;;;3.65;;
23596;SDS011;40226;50.874;4.394;2023-11-25T06:34:51;17.55;;;3.17;;
23596;SDS011;40226;50.874;4.394;2023-11-25T06:37:16;21.85;;;3.47;;
23596;SDS011;40226;50.874;4.394;2023-11-25T06:39:42;19.15;;;2.95;;
23596;SDS011;40226;50.874;4.394;2023-11-25T06:42:08;22.63;;;2.97;;
23596;SDS011;40226;50.874;4.394;2023-11-25T06:44:34;22.00;;;3.10;;
23596;SDS011;40226;50.874;4.394;2023-11-25T06:47:00;24.45;;;3.83;;
23596;SDS011;40226;50.874;4.394;2023-11-25T06:49:26;24.38;;;3.28;;
23596;SDS011;40226;50.874;4.394;2023-11-25T06:51:51;18.35;;;3.00;;
23596;SDS011;40226;50.874;4.394;2023-11-25T06:54:17;19.83;;;2.80;;
23596;SDS011;40226;50.874;4.394;2023-11-25T06:56:43;17.40;;;2.65;;
23596;SDS011;40226;50.874;4.394;2023-11-25T06:59:09;23.35;;;3.25;;
23596;SDS011;40226;50.874;4.394;2023-11-25T07:01:34;18.50;;;2.88;;
23596;SDS011;40226;50.874;4.394;2023-11-25T07:04:03;24.17;;;3.20;;
23596;SDS011;40226;50.874;4.394;2023-11-25T07:06:32;18.65;;;3.42;;
23596;SDS011;40226;50.874;4.394;2023-11-25T07:08:58;15.38;;;3.45;;
23596;SDS011;40226;50.874;4.394;2023-11-25T07:11:26;12.35;;;3.15;;
23596;SDS011;40226;50.874;4.394;2023-11-25T07:13:52;18.00;;;2.58;;
23596;SDS011;40226;50.874;4.394;2023-11-25T07:16:23;16.45;;;3.50;;
23596;SDS011;40226;50.874;4.394;2023-11-25T07:18:49;12.98;;;2.95;;
23596;SDS011;40226;50.874;4.394;2023-11-25T07:21:15;18.92;;;3.47;;
23596;SDS011;40226;50.874;4.394;2023-11-25T07:23:40;17.95;;;2.90;;
23596;SDS011;40226;50.874;4.394;2023-11-25T07:26:08;17.25;;;3.10;;
23596;SDS011;40226;50.874;4.394;2023-11-25T07:28:36;14.30;;;2.00;;
23596;SDS011;40226;50.874;4.394;2023-11-25T07:31:02;13.48;;;2.20;;
23596;SDS011;40226;50.874;4.394;2023-11-25T07:33:29;14.30;;;2.20;;
23596;SDS011;40226;50.874;4.394;2023-11-25T07:35:56;12.57;;;2.13;;
23596;SDS011;40226;50.874;4.394;2023-11-25T07:38:22;18.10;;;2.40;;
23596;SDS011;40226;50.874;4.394;2023-11-25T07:40:48;13.75;;;2.00;;
23596;SDS011;40226;50.874;4.394;2023-11-25T07:43:14;8.07;;;1.83;;
23596;SDS011;40226;50.874;4.394;2023-11-25T07:45:49;9.98;;;1.77;;
23596;SDS011;40226;50.874;4.394;2023-11-25T07:48:15;15.82;;;2.20;;
23596;SDS011;40226;50.874;4.394;2023-11-25T07:50:41;17.67;;;2.33;;
23596;SDS011;40226;50.874;4.394;2023-11-25T07:53:10;12.90;;;1.85;;
23596;SDS011;40226;50.874;4.394;2023-11-25T07:55:39;17.20;;;2.40;;
23596;SDS011;40226;50.874;4.394;2023-11-25T07:58:05;14.82;;;2.03;;
23596;SDS011;40226;50.874;4.394;2023-11-25T08:00:32;16.10;;;2.20;;
23596;SDS011;40226;50.874;4.394;2023-11-25T08:02:57;15.98;;;2.50;;
23596;SDS011;40226;50.874;4.394;2023-11-25T08:05:23;15.68;;;2.88;;
23596;SDS011;40226;50.874;4.394;2023-11-25T08:07:53;16.33;;;2.50;;
23596;SDS011;40226;50.874;4.394;2023-11-25T08:10:20;13.75;;;3.05;;
23596;SDS011;40226;50.874;4.394;2023-11-25T08:12:47;18.38;;;3.50;;
23596;SDS011;40226;50.874;4.394;2023-11-25T08:15:12;11.07;;;3.15;;
23596;SDS011;40226;50.874;4.394;2023-11-25T08:17:39;16.75;;;3.78;;
23596;SDS011;40226;50.874;4.394;2023-11-25T08:20:06;12.13;;;3.50;;
23596;SDS011;40226;50.874;4.394;2023-11-25T08:22:33;12.25;;;3.13;;
23596;SDS011;40226;50.874;4.394;2023-11-25T08:25:00;11.18;;;3.00;;
23596;SDS011;40226;50.874;4.394;2023-11-25T08:27:30;14.07;;;3.20;;
23596;SDS011;40226;50.874;4.394;2023-11-25T08:29:56;10.32;;;2.85;;
23596;SDS011;40226;50.874;4.394;2023-11-25T08:32:22;17.00;;;4.00;;
23596;SDS011;40226;50.874;4.394;2023-11-25T08:34:47;15.75;;;4.28;;
23596;SDS011;40226;50.874;4.394;2023-11-25T08:37:15;17.38;;;3.40;;
23596;SDS011;40226;50.874;4.394;2023-11-25T08:39:44;15.00;;;3.25;;
23596;SDS011;40226;50.874;4.394;2023-11-25T08:42:12;13.70;;;3.20;;
23596;SDS011;40226;50.874;4.394;2023-11-25T08:44:39;13.70;;;3.28;;
23596;SDS011;40226;50.874;4.394;2023-11-25T08:47:08;12.95;;;3.45;;
23596;SDS011;40226;50.874;4.394;2023-11-25T08:49:33;14.50;;;3.63;;
23596;SDS011;40226;50.874;4.394;2023-11-25T08:51:59;13.18;;;3.22;;
23596;SDS011;40226;50.874;4.394;2023-11-25T08:54:25;9.50;;;3.10;;
23596;SDS011;40226;50.874;4.394;2023-11-25T08:56:58;16.75;;;3.85;;
23596;SDS011;40226;50.874;4.394;2023-11-25T08:59:25;14.95;;;3.63;;
23596;SDS011;40226;50.874;4.394;2023-11-25T09:01:51;12.75;;;3.40;;
23596;SDS011;40226;50.874;4.394;2023-11-25T09:04:18;16.48;;;3.60;;
23596;SDS011;40226;50.874;4.394;2023-11-25T09:06:51;15.65;;;4.70;;
23596;SDS011;40226;50.874;4.394;2023-11-25T09:09:18;15.77;;;4.82;;
23596;SDS011;40226;50.874;4.394;2023-11-25T09:11:45;14.45;;;5.00;;
23596;SDS011;40226;50.874;4.394;2023-11-25T09:14:11;15.93;;;4.47;;
23596;SDS011;40226;50.874;4.394;2023-11-25T09:16:39;18.30;;;3.97;;
23596;SDS011;40226;50.874;4.394;2023-11-25T09:19:05;0.10;;;0.10;;
23596;SDS011;40226;50.874;4.394;2023-11-25T09:21:31;0.52;;;0.52;;
23596;SDS011;40226;50.874;4.394;2023-11-25T09:23:58;0.25;;;0.25;;
23596;SDS011;40226;50.874;4.394;2023-11-25T09:26:24;0.82;;;0.82;;
23596;SDS011;40226;50.874;4.394;2023-11-25T09:28:50;0.40;;;0.40;;
23596;SDS011;40226;50.874;4.394;2023-11-25T09:31:17;0.10;;;0.10;;
23596;SDS011;40226;50.874;4.394;2023-11-25T09:33:43;0.60;;;0.60;;
23596;SDS011;40226;50.874;4.394;2023-11-25T09:36:09;0.75;;;0.75;;
23596;SDS011;40226;50.874;4.394;2023-11-25T09:38:35;2.03;;;1.85;;
23596;SDS011;40226;50.874;4.394;2023-11-25T09:41:01;0.10;;;0.10;;
23596;SDS011;40226;50.874;4.394;2023-11-25T09:43:26;0.20;;;0.20;;
23596;SDS011;40226;50.874;4.394;2023-11-25T09:45:54;0.10;;;0.10;;
23596;SDS011;40226;50.874;4.394;2023-11-25T09:48:20;0.10;;;0.10;;
23596;SDS011;40226;50.874;4.394;2023-11-25T09:50:46;0.20;;;0.20;;
23596;SDS011;40226;50.874;4.394;2023-11-25T09:53:19;0.10;;;0.10;;
23596;SDS011;40226;50.874;4.394;2023-11-25T09:56:08;0.98;;;0.98;;
23596;SDS011;40226;50.874;4.394;2023-11-25T09:58:36;0.95;;;0.95;;
23596;SDS011;40226;50.874;4.394;2023-11-25T10:01:03;0.10;;;0.10;;
23596;SDS011;40226;50.874;4.394;2023-11-25T10:03:38;0.15;;;0.15;;
23596;SDS011;40226;50.874;4.394;2023-11-25T10:06:07;0.10;;;0.10;;
23596;SDS011;40226;50.874;4.394;2023-11-25T10:08:34;0.10;;;0.10;;
23596;SDS011;40226;50.874;4.394;2023-11-25T10:11:00;0.30;;;0.30;;
23596;SDS011;40226;50.874;4.394;2023-11-25T10:13:33;0.30;;;0.30;;
23596;SDS011;40226;50.874;4.394;2023-11-25T10:16:00;3.60;;;1.58;;
23596;SDS011;40226;50.874;4.394;2023-11-25T10:18:26;0.10;;;0.10;;
23596;SDS011;40226;50.874;4.394;2023-11-25T10:20:52;0.25;;;0.25;;
23596;SDS011;40226;50.874;4.394;2023-11-25T10:23:22;0.10;;;0.10;;
23596;SDS011;40226;50.874;4.394;2023-11-25T10:25:51;0.30;;;0.30;;
23596;SDS011;40226;50.874;4.394;2023-11-25T10:28:18;0.17;;;0.17;;
23596;SDS011;40226;50.874;4.394;2023-11-25T10:30:54;0.20;;;0.20;;
23596;SDS011;40226;50.874;4.394;2023-11-25T10:33:24;0.30;;;0.30;;
23596;SDS011;40226;50.874;4.394;2023-11-25T10:35:53;0.10;;;0.10;;
23596;SDS011;40226;50.874;4.394;2023-11-25T10:38:20;0.17;;;0.17;;
23596;SDS011;40226;50.874;4.394;2023-11-25T10:43:24;0.10;;;0.10;;
23596;SDS011;40226;50.874;4.394;2023-11-25T10:46:00;0.28;;;0.28;;
23596;SDS011;40226;50.874;4.394;2023-11-25T10:48:33;0.50;;;0.50;;
23596;SDS011;40226;50.874;4.394;2023-11-25T10:50:59;0.40;;;0.40;;
23596;SDS011;40226;50.874;4.394;2023-11-25T10:53:29;0.20;;;0.20;;
23596;SDS011;40226;50.874;4.394;2023-11-25T10:55:56;0.10;;;0.10;;
23596;SDS011;40226;50.874;4.394;2023-11-25T10:58:23;0.20;;;0.20;;
23596;SDS011;40226;50.874;4.394;2023-11-25T11:00:51;0.10;;;0.10;;
23596;SDS011;40226;50.874;4.394;2023-11-25T11:03:20;0.20;;;0.20;;
23596;SDS011;40226;50.874;4.394;2023-11-25T11:05:50;0.40;;;0.40;;
23596;SDS011;40226;50.874;4.394;2023-11-25T11:08:32;0.10;;;0.10;;
23596;SDS011;40226;50.874;4.394;2023-11-25T11:11:02;0.10;;;0.10;;
23596;SDS011;40226;50.874;4.394;2023-11-25T11:13:38;0.10;;;0.10;;
23596;SDS011;40226;50.874;4.394;2023-11-25T11:18:39;0.20;;;0.20;;
23596;SDS011;40226;50.874;4.394;2023-11-25T11:21:06;0.10;;;0.10;;
23596;SDS011;40226;50.874;4.394;2023-11-25T11:23:34;4.95;;;1.35;;
23596;SDS011;40226;50.874;4.394;2023-11-25T11:28:56;0.00;;;0.00;;
23596;SDS011;40226;50.874;4.394;2023-11-25T11:34:25;0.17;;;0.17;;
23596;SDS011;40226;50.874;4.394;2023-11-25T11:37:02;0.15;;;0.15;;
23596;SDS011;40226;50.874;4.394;2023-11-25T11:39:39;0.15;;;0.15;;
23596;SDS011;40226;50.874;4.394;2023-11-25T11:44:57;0.38;;;0.38;;
23596;SDS011;40226;50.874;4.394;2023-11-25T11:47:42;0.25;;;0.25;;
23596;SDS011;40226;50.874;4.394;2023-11-25T11:50:10;1.48;;;0.57;;
23596;SDS011;40226;50.874;4.394;2023-11-25T11:52:45;0.10;;;0.10;;
23596;SDS011;40226;50.874;4.394;2023-11-25T11:58:15;0.10;;;0.10;;
23596;SDS011;40226;50.874;4.394;2023-11-25T12:03:24;0.10;;;0.10;;
23596;SDS011;40226;50.874;4.394;2023-11-25T12:05:51;0.10;;;0.10;;
23596;SDS011;40226;50.874;4.394;2023-11-25T12:08:19;1.48;;;0.95;;
23596;SDS011;40226;50.874;4.394;2023-11-25T12:10:45;0.10;;;0.10;;
23596;SDS011;40226;50.874;4.394;2023-11-25T12:13:23;0.10;;;0.10;;
23596;SDS011;40226;50.874;4.394;2023-11-25T12:16:03;1.20;;;1.13;;
23596;SDS011;40226;50.874;4.394;2023-11-25T12:18:30;0.20;;;0.20;;
23596;SDS011;40226;50.874;4.394;2023-11-25T12:21:00;0.20;;;0.20;;
23596;SDS011;40226;50.874;4.394;2023-11-25T12:23:29;0.13;;;0.13;;
23596;SDS011;40226;50.874;4.394;2023-11-25T12:25:59;0.88;;;0.63;;
23596;SDS011;40226;50.874;4.394;2023-11-25T12:28:25;0.68;;;0.68;;
23596;SDS011;40226;50.874;4.394;2023-11-25T12:30:51;0.38;;;0.38;;
23596;SDS011;40226;50.874;4.394;2023-11-25T12:33:17;0.20;;;0.20;;
23596;SDS011;40226;50.874;4.394;2023-11-25T12:35:45;0.93;;;0.93;;
23596;SDS011;40226;50.874;4.394;2023-11-25T12:38:12;0.10;;;0.10;;
23596;SDS011;40226;50.874;4.394;2023-11-25T12:40:40;1.77;;;1.30;;
23596;SDS011;40226;50.874;4.394;2023-11-25T12:43:06;0.10;;;0.10;;
23596;SDS011;40226;50.874;4.394;2023-11-25T12:45:37;0.10;;;0.10;;
23596;SDS011;40226;50.874;4.394;2023-11-25T12:48:06;0.45;;;0.45;;
23596;SDS011;40226;50.874;4.394;2023-11-25T12:50:34;0.52;;;0.52;;
23596;SDS011;40226;50.874;4.394;2023-11-25T12:55:51;0.10;;;0.10;;
23596;SDS011;40226;50.874;4.394;2023-11-25T12:58:18;0.30;;;0.30;;
23596;SDS011;40226;50.874;4.394;2023-11-25T13:00:53;0.75;;;0.75;;
23596;SDS011;40226;50.874;4.394;2023-11-25T13:03:25;0.95;;;0.57;;
23596;SDS011;40226;50.874;4.394;2023-11-25T13:05:57;0.35;;;0.35;;
23596;SDS011;40226;50.874;4.394;2023-11-25T13:08:28;1.55;;;1.33;;
23596;SDS011;40226;50.874;4.394;2023-11-25T13:10:55;2.00;;;1.08;;
23596;SDS011;40226;50.874;4.394;2023-11-25T13:13:22;0.20;;;0.20;;
23596;SDS011;40226;50.874;4.394;2023-11-25T13:15:55;0.93;;;0.93;;
23596;SDS011;40226;50.874;4.394;2023-11-25T13:18:21;0.75;;;0.65;;
23596;SDS011;40226;50.874;4.394;2023-11-25T13:20:48;0.50;;;0.50;;
23596;SDS011;40226;50.874;4.394;2023-11-25T13:23:15;0.30;;;0.30;;
23596;SDS011;40226;50.874;4.394;2023-11-25T13:25:42;0.40;;;0.40;;
23596;SDS011;40226;50.874;4.394;2023-11-25T13:28:08;0.52;;;0.52;;
23596;SDS011;40226;50.874;4.394;2023-11-25T13:30:34;0.10;;;0.10;;
23596;SDS011;40226;50.874;4.394;2023-11-25T13:33:00;1.48;;;1.38;;
23596;SDS011;40226;50.874;4.394;2023-11-25T13:35:26;0.20;;;0.20;;
23596;SDS011;40226;50.874;4.394;2023-11-25T13:37:54;2.05;;;1.75;;
23596;SDS011;40226;50.874;4.394;2023-11-25T13:40:26;0.57;;;0.57;;
23596;SDS011;40226;50.874;4.394;2023-11-25T13:42:59;0.20;;;0.20;;
23596;SDS011;40226;50.874;4.394;2023-11-25T13:45:26;0.30;;;0.30;;
23596;SDS011;40226;50.874;4.394;2023-11-25T13:47:52;0.20;;;0.20;;
23596;SDS011;40226;50.874;4.394;2023-11-25T13:50:18;0.10;;;0.10;;
23596;SDS011;40226;50.874;4.394;2023-11-25T13:52:45;0.10;;;0.10;;
23596;SDS011;40226;50.874;4.394;2023-11-25T13:55:11;0.40;;;0.40;;
23596;SDS011;40226;50.874;4.394;2023-11-25T13:57:40;0.30;;;0.30;;
23596;SDS011;40226;50.874;4.394;2023-11-25T14:00:07;3.92;;;1.23;;
23596;SDS011;40226;50.874;4.394;2023-11-25T14:02:33;0.10;;;0.10;;
23596;SDS011;40226;50.874;4.394;2023-11-25T14:05:00;0.20;;;0.20;;
23596;SDS011;40226;50.874;4.394;2023-11-25T14:07:26;0.43;;;0.43;;
23596;SDS011;40226;50.874;4.394;2023-11-25T14:09:52;0.50;;;0.50;;
23596;SDS011;40226;50.874;4.394;2023-11-25T14:12:17;0.20;;;0.20;;
23596;SDS011;40226;50.874;4.394;2023-11-25T14:14:43;0.10;;;0.10;;
23596;SDS011;40226;50.874;4.394;2023-11-25T14:17:08;0.28;;;0.28;;
23596;SDS011;40226;50.874;4.394;2023-11-25T14:19:40;0.35;;;0.35;;
23596;SDS011;40226;50.874;4.394;2023-11-25T14:22:06;0.10;;;0.10;;
23596;SDS011;40226;50.874;4.394;2023-11-25T14:24:34;0.43;;;0.43;;
23596;SDS011;40226;50.874;4.394;2023-11-25T14:27:00;0.20;;;0.20;;
23596;SDS011;40226;50.874;4.394;2023-11-25T14:29:25;1.88;;;1.23;;
23596;SDS011;40226;50.874;4.394;2023-11-25T14:32:10;0.28;;;0.28;;
23596;SDS011;40226;50.874;4.394;2023-11-25T14:34:37;0.30;;;0.30;;
23596;SDS011;40226;50.874;4.394;2023-11-25T14:37:03;0.15;;;0.15;;
23596;SDS011;40226;50.874;4.394;2023-11-25T14:39:29;0.20;;;0.20;;
23596;SDS011;40226;50.874;4.394;2023-11-25T14:42:01;0.10;;;0.10;;
23596;SDS011;40226;50.874;4.394;2023-11-25T14:44:30;0.10;;;0.10;;
23596;SDS011;40226;50.874;4.394;2023-11-25T14:46:56;0.40;;;0.40;;
23596;SDS011;40226;50.874;4.394;2023-11-25T14:49:22;0.32;;;0.32;;
23596;SDS011;40226;50.874;4.394;2023-11-25T14:51:49;0.55;;;0.55;;
23596;SDS011;40226;50.874;4.394;2023-11-25T14:54:16;5.95;;;0.80;;
23596;SDS011;40226;50.874;4.394;2023-11-25T14:56:47;0.60;;;0.60;;
23596;SDS011;40226;50.874;4.394;2023-11-25T14:59:13;0.20;;;0.20;;
23596;SDS011;40226;50.874;4.394;2023-11-25T15:01:40;0.50;;;0.50;;
23596;SDS011;40226;50.874;4.394;2023-11-25T15:04:13;0.17;;;0.17;;
23596;SDS011;40226;50.874;4.394;2023-11-25T15:06:48;2.50;;;1.08;;
23596;SDS011;40226;50.874;4.394;2023-11-25T15:09:14;0.20;;;0.20;;